Airfield :
LOGIN :

Register | Disclaimer

   EN    FR    IT 

 










Legend :    VFR   Marginal VFR   IFR   Intensive IFR   Very Intensive IFR
Visi :
Ceiling :
>= 8 km
>= 3000ft
5 to 8 km
1000 to 3000 ft
1500m to 5 km
500 to 1000 ft
800 to 1500m
200 to 500 ft
< 800m
< 200 ft
Symbols :   Thunderstorms  Fog  Heavy snow  Heavy precipitations  Wind > 20 kt
SIGMETs :     Misc.  Thunderstorms  Icing  Turbulence  Mountain Waves  Volcanic Ashes






- Airport Elevation : 309 ft
- IATA code : FNI


LFTW - Nîmes Garons

CURRENT METAR :
  • 280630Z AUTO 36013KT 9999 BKN034 OVC150 10/04 Q1014 BECMG 36020G30KT

EXPIRED METARs :
  • 280600Z AUTO 36014G24KT 320V020 9999 SCT036 BKN140 OVC160 10/04 Q1013 NOSIG
  • 280530Z AUTO 36013G23KT 330V030 9999 FEW037 BKN084 OVC130 10/04 Q1013 NOSIG
  • 280500Z AUTO 35015KT 330V030 9999 -RA NSC 09/04 Q1013 BECMG 36020G30KT
  • 280430Z AUTO 35012KT 320V040 9999 -RA NSC 10/04 Q1013 BECMG 36020G30KT
  • 280400Z AUTO 35015KT 320V030 CAVOK 10/04 Q1012 BECMG 36020G30KT
  • 280330Z AUTO 36016G27KT 330V030 9999 SCT037 OVC100 10/03 Q1012 NOSIG
  • 280300Z AUTO 36014KT 330V030 9999 BKN037 OVC100 10/04 Q1012 BECMG 36020G30KT
  • 280230Z AUTO 35016KT 330V030 9999 FEW037 OVC100 10/04 Q1012 BECMG 36020G30KT
  • 280200Z AUTO 35018G29KT CAVOK 10/04 Q1011
  • 280130Z AUTO 35017G29KT 330V030 CAVOK 10/04 Q1011

TAF TAF LFTW
Valid from the 28 at 03:00 until the 29 at 03:00 UTC


280200Z 2803/2903 36020G30KT CAVOK



MET'MAP, your aeronautical weather chart ! - Copyright ORBIFLY December 2007 - Disclaimer

ORBIFLY MET'MAP TEAM :

Programming & Development : Alexandra Zaïnal
Original concept : Baudouin d'Aumeries
Technical & hardware support : Manuel Goepfert
Assistance : Marc-Olivier Méhu




SOURCES & CREDITS :

   NOAA